<?xml version="1.0" encoding="UTF-8" standalone="no" ?>
<gpx xmlns="http://www.topografix.com/GPX/1/1" xmlns:xsi="http://www.w3.org/2001/XMLSchema-instance" xsi:schemaLocation="http://www.topografix.com/GPX/1/1 http://www.topografix.com/GPX/1/1/gpx.xsd" version="1.1" creator="VisuGPX - https://www.visugpx.com">
  <metadata>
    <name>Tour de France 2019</name>
    <desc><![CDATA[4272km en 2 mois en tandem avec notre petit chien dans le panier avant]]></desc>
  </metadata>
  <trk>
    <name><![CDATA[Tracé 20191027-093630]]></name>
    <trkseg>
      <trkpt lat="44.26409" lon="3.93807">
        <ele>565.005</ele>
        <time>2019-10-27T08:37:30Z</time>
      </trkpt>
      <trkpt lat="44.26475" lon="3.93804">
        <ele>563.943</ele>
        <time>2019-10-27T08:57:31Z</time>
      </trkpt>
      <trkpt lat="44.26477" lon="3.93926">
        <ele>574.337</ele>
        <time>2019-10-27T08:59:25Z</time>
      </trkpt>
      <trkpt lat="44.26507" lon="3.939">
        <ele>582.404</ele>
        <time>2019-10-27T09:00:07Z</time>
      </trkpt>
      <trkpt lat="44.26552" lon="3.93869">
        <ele>592.723</ele>
        <time>2019-10-27T09:00:43Z</time>
      </trkpt>
      <trkpt lat="44.26608" lon="3.93874">
        <ele>602.147</ele>
        <time>2019-10-27T09:01:16Z</time>
      </trkpt>
      <trkpt lat="44.26664" lon="3.93869">
        <ele>604.978</ele>
        <time>2019-10-27T09:01:52Z</time>
      </trkpt>
      <trkpt lat="44.26719" lon="3.93873">
        <ele>604.476</ele>
        <time>2019-10-27T09:02:25Z</time>
      </trkpt>
      <trkpt lat="44.26769" lon="3.93881">
        <ele>613.362</ele>
        <time>2019-10-27T09:02:58Z</time>
      </trkpt>
      <trkpt lat="44.26817" lon="3.93912">
        <ele>615.409</ele>
        <time>2019-10-27T09:03:31Z</time>
      </trkpt>
      <trkpt lat="44.26868" lon="3.93948">
        <ele>622.652</ele>
        <time>2019-10-27T09:04:10Z</time>
      </trkpt>
      <trkpt lat="44.26816" lon="3.93958">
        <ele>623.048</ele>
        <time>2019-10-27T09:04:49Z</time>
      </trkpt>
      <trkpt lat="44.2676" lon="3.93956">
        <ele>626.284</ele>
        <time>2019-10-27T09:05:25Z</time>
      </trkpt>
      <trkpt lat="44.26718" lon="3.94008">
        <ele>631.756</ele>
        <time>2019-10-27T09:05:58Z</time>
      </trkpt>
      <trkpt lat="44.26762" lon="3.94033">
        <ele>639.437</ele>
        <time>2019-10-27T09:06:37Z</time>
      </trkpt>
      <trkpt lat="44.26823" lon="3.94051">
        <ele>654.785</ele>
        <time>2019-10-27T09:07:25Z</time>
      </trkpt>
      <trkpt lat="44.26873" lon="3.9407">
        <ele>659.4</ele>
        <time>2019-10-27T09:07:58.001Z</time>
      </trkpt>
      <trkpt lat="44.26926" lon="3.94076">
        <ele>664.433</ele>
        <time>2019-10-27T09:08:37.001Z</time>
      </trkpt>
      <trkpt lat="44.26977" lon="3.94072">
        <ele>669.751</ele>
        <time>2019-10-27T09:09:13.001Z</time>
      </trkpt>
      <trkpt lat="44.27027" lon="3.94121">
        <ele>671.8</ele>
        <time>2019-10-27T09:09:49.001Z</time>
      </trkpt>
      <trkpt lat="44.2708" lon="3.94156">
        <ele>682.226</ele>
        <time>2019-10-27T09:10:31.001Z</time>
      </trkpt>
      <trkpt lat="44.2713" lon="3.94159">
        <ele>683.58</ele>
        <time>2019-10-27T09:11:04.001Z</time>
      </trkpt>
      <trkpt lat="44.27179" lon="3.94123">
        <ele>685.634</ele>
        <time>2019-10-27T09:11:34.001Z</time>
      </trkpt>
      <trkpt lat="44.27224" lon="3.94054">
        <ele>689.888</ele>
        <time>2019-10-27T09:12:16Z</time>
      </trkpt>
      <trkpt lat="44.27276" lon="3.93965">
        <ele>693.715</ele>
        <time>2019-10-27T09:12:55.001Z</time>
      </trkpt>
      <trkpt lat="44.27338" lon="3.93926">
        <ele>690.89</ele>
        <time>2019-10-27T09:13:25.001Z</time>
      </trkpt>
      <trkpt lat="44.27399" lon="3.93924">
        <ele>695.55</ele>
        <time>2019-10-27T09:13:58.001Z</time>
      </trkpt>
      <trkpt lat="44.27471" lon="3.93903">
        <ele>701.624</ele>
        <time>2019-10-27T09:14:28.001Z</time>
      </trkpt>
      <trkpt lat="44.27541" lon="3.93915">
        <ele>707.752</ele>
        <time>2019-10-27T09:14:58.001Z</time>
      </trkpt>
      <trkpt lat="44.27633" lon="3.93903">
        <ele>708.455</ele>
        <time>2019-10-27T09:15:28.001Z</time>
      </trkpt>
      <trkpt lat="44.27772" lon="3.93938">
        <ele>702.462</ele>
        <time>2019-10-27T09:15:58.001Z</time>
      </trkpt>
      <trkpt lat="44.27864" lon="3.93982">
        <ele>701.535</ele>
        <time>2019-10-27T09:16:28.001Z</time>
      </trkpt>
      <trkpt lat="44.2793" lon="3.93997">
        <ele>700.427</ele>
        <time>2019-10-27T09:16:58.001Z</time>
      </trkpt>
      <trkpt lat="44.28018" lon="3.94017">
        <ele>699.632</ele>
        <time>2019-10-27T09:17:28.001Z</time>
      </trkpt>
      <trkpt lat="44.28077" lon="3.9414">
        <ele>693.579</ele>
        <time>2019-10-27T09:17:58.001Z</time>
      </trkpt>
      <trkpt lat="44.28121" lon="3.94221">
        <ele>692.423</ele>
        <time>2019-10-27T09:18:28.001Z</time>
      </trkpt>
      <trkpt lat="44.28185" lon="3.94301">
        <ele>689.76</ele>
        <time>2019-10-27T09:18:58.001Z</time>
      </trkpt>
      <trkpt lat="44.28291" lon="3.9442">
        <ele>680.877</ele>
        <time>2019-10-27T09:19:28.001Z</time>
      </trkpt>
      <trkpt lat="44.28366" lon="3.94486">
        <ele>672.161</ele>
        <time>2019-10-27T09:19:58.001Z</time>
      </trkpt>
      <trkpt lat="44.28419" lon="3.94457">
        <ele>675.927</ele>
        <time>2019-10-27T09:20:28.001Z</time>
      </trkpt>
      <trkpt lat="44.28457" lon="3.94395">
        <ele>686.993</ele>
        <time>2019-10-27T09:20:58.001Z</time>
      </trkpt>
      <trkpt lat="44.28492" lon="3.94331">
        <ele>694.123</ele>
        <time>2019-10-27T09:21:28.001Z</time>
      </trkpt>
      <trkpt lat="44.28526" lon="3.94269">
        <ele>695.743</ele>
        <time>2019-10-27T09:21:58.001Z</time>
      </trkpt>
      <trkpt lat="44.28566" lon="3.94207">
        <ele>697.989</ele>
        <time>2019-10-27T09:22:28.001Z</time>
      </trkpt>
      <trkpt lat="44.28613" lon="3.94161">
        <ele>699.716</ele>
        <time>2019-10-27T09:22:58.001Z</time>
      </trkpt>
      <trkpt lat="44.28656" lon="3.9412">
        <ele>705.436</ele>
        <time>2019-10-27T09:23:28.001Z</time>
      </trkpt>
      <trkpt lat="44.28703" lon="3.9407">
        <ele>704.967</ele>
        <time>2019-10-27T09:24:01.001Z</time>
      </trkpt>
      <trkpt lat="44.28742" lon="3.94018">
        <ele>712.029</ele>
        <time>2019-10-27T09:24:31.001Z</time>
      </trkpt>
      <trkpt lat="44.2878" lon="3.93962">
        <ele>718.323</ele>
        <time>2019-10-27T09:25:04.001Z</time>
      </trkpt>
      <trkpt lat="44.28826" lon="3.93916">
        <ele>721.635</ele>
        <time>2019-10-27T09:25:34.001Z</time>
      </trkpt>
      <trkpt lat="44.28872" lon="3.9386">
        <ele>726.382</ele>
        <time>2019-10-27T09:26:04.001Z</time>
      </trkpt>
      <trkpt lat="44.28926" lon="3.93814">
        <ele>733.803</ele>
        <time>2019-10-27T09:26:34.001Z</time>
      </trkpt>
      <trkpt lat="44.28982" lon="3.93802">
        <ele>738.883</ele>
        <time>2019-10-27T09:27:04.001Z</time>
      </trkpt>
      <trkpt lat="44.2904" lon="3.93781">
        <ele>740.493</ele>
        <time>2019-10-27T09:27:34.001Z</time>
      </trkpt>
      <trkpt lat="44.29086" lon="3.93735">
        <ele>749.028</ele>
        <time>2019-10-27T09:28:04.001Z</time>
      </trkpt>
      <trkpt lat="44.29108" lon="3.93658">
        <ele>754.84</ele>
        <time>2019-10-27T09:28:40.001Z</time>
      </trkpt>
      <trkpt lat="44.29157" lon="3.93596">
        <ele>742.619</ele>
        <time>2019-10-27T09:29:10.001Z</time>
      </trkpt>
      <trkpt lat="44.29215" lon="3.93605">
        <ele>747.07</ele>
        <time>2019-10-27T09:29:40.001Z</time>
      </trkpt>
      <trkpt lat="44.29275" lon="3.93614">
        <ele>750.435</ele>
        <time>2019-10-27T09:30:10.001Z</time>
      </trkpt>
      <trkpt lat="44.29329" lon="3.9361">
        <ele>760.274</ele>
        <time>2019-10-27T09:30:40.001Z</time>
      </trkpt>
      <trkpt lat="44.29368" lon="3.93542">
        <ele>768.856</ele>
        <time>2019-10-27T09:31:13.001Z</time>
      </trkpt>
      <trkpt lat="44.2942" lon="3.93506">
        <ele>771.777</ele>
        <time>2019-10-27T09:31:43.001Z</time>
      </trkpt>
      <trkpt lat="44.29471" lon="3.93461">
        <ele>771.409</ele>
        <time>2019-10-27T09:32:13.001Z</time>
      </trkpt>
      <trkpt lat="44.29521" lon="3.93422">
        <ele>765.85</ele>
        <time>2019-10-27T09:32:43.001Z</time>
      </trkpt>
      <trkpt lat="44.2956" lon="3.93361">
        <ele>768.499</ele>
        <time>2019-10-27T09:33:19.001Z</time>
      </trkpt>
      <trkpt lat="44.29582" lon="3.93286">
        <ele>779.439</ele>
        <time>2019-10-27T09:33:55.001Z</time>
      </trkpt>
      <trkpt lat="44.29603" lon="3.93201">
        <ele>804.161</ele>
        <time>2019-10-27T09:34:40.001Z</time>
      </trkpt>
      <trkpt lat="44.29625" lon="3.93117">
        <ele>800.821</ele>
        <time>2019-10-27T09:35:22.001Z</time>
      </trkpt>
      <trkpt lat="44.29653" lon="3.93047">
        <ele>807.349</ele>
        <time>2019-10-27T09:35:58.001Z</time>
      </trkpt>
      <trkpt lat="44.2969" lon="3.92969">
        <ele>810.324</ele>
        <time>2019-10-27T09:36:37.001Z</time>
      </trkpt>
      <trkpt lat="44.29724" lon="3.92901">
        <ele>813.1</ele>
        <time>2019-10-27T09:37:13.001Z</time>
      </trkpt>
      <trkpt lat="44.29769" lon="3.92857">
        <ele>812.015</ele>
        <time>2019-10-27T09:37:49.001Z</time>
      </trkpt>
      <trkpt lat="44.2981" lon="3.92802">
        <ele>816.397</ele>
        <time>2019-10-27T09:38:22.001Z</time>
      </trkpt>
      <trkpt lat="44.29829" lon="3.92745">
        <ele>825.329</ele>
        <time>2019-10-27T09:38:52.001Z</time>
      </trkpt>
      <trkpt lat="44.29812" lon="3.92678">
        <ele>821.372</ele>
        <time>2019-10-27T09:39:37.001Z</time>
      </trkpt>
      <trkpt lat="44.29795" lon="3.9259">
        <ele>828.828</ele>
        <time>2019-10-27T09:40:22.001Z</time>
      </trkpt>
      <trkpt lat="44.2979" lon="3.92517">
        <ele>829.511</ele>
        <time>2019-10-27T09:40:58.001Z</time>
      </trkpt>
      <trkpt lat="44.2978" lon="3.92445">
        <ele>833.57</ele>
        <time>2019-10-27T09:41:31.001Z</time>
      </trkpt>
      <trkpt lat="44.29774" lon="3.92356">
        <ele>833.75</ele>
        <time>2019-10-27T09:42:01.001Z</time>
      </trkpt>
      <trkpt lat="44.29765" lon="3.92253">
        <ele>824.141</ele>
        <time>2019-10-27T09:42:31.001Z</time>
      </trkpt>
      <trkpt lat="44.29754" lon="3.92171">
        <ele>824.643</ele>
        <time>2019-10-27T09:43:01.001Z</time>
      </trkpt>
      <trkpt lat="44.29772" lon="3.92089">
        <ele>831.713</ele>
        <time>2019-10-27T09:43:37.001Z</time>
      </trkpt>
      <trkpt lat="44.29866" lon="3.92078">
        <ele>840.721</ele>
        <time>2019-10-27T09:44:07.001Z</time>
      </trkpt>
      <trkpt lat="44.2997" lon="3.92115">
        <ele>843.92</ele>
        <time>2019-10-27T09:44:37.001Z</time>
      </trkpt>
      <trkpt lat="44.30069" lon="3.92176">
        <ele>838.265</ele>
        <time>2019-10-27T09:45:07.001Z</time>
      </trkpt>
      <trkpt lat="44.3015" lon="3.92139">
        <ele>837.223</ele>
        <time>2019-10-27T09:45:37.001Z</time>
      </trkpt>
      <trkpt lat="44.30237" lon="3.92197">
        <ele>834.058</ele>
        <time>2019-10-27T09:46:07.001Z</time>
      </trkpt>
      <trkpt lat="44.30338" lon="3.9217">
        <ele>837.679</ele>
        <time>2019-10-27T09:46:37.001Z</time>
      </trkpt>
      <trkpt lat="44.30403" lon="3.92046">
        <ele>831.281</ele>
        <time>2019-10-27T09:47:07.001Z</time>
      </trkpt>
      <trkpt lat="44.30422" lon="3.91942">
        <ele>826.84</ele>
        <time>2019-10-27T09:48:49.001Z</time>
      </trkpt>
      <trkpt lat="44.30439" lon="3.91733">
        <ele>824.228</ele>
        <time>2019-10-27T09:49:19.001Z</time>
      </trkpt>
      <trkpt lat="44.30553" lon="3.91541">
        <ele>810.878</ele>
        <time>2019-10-27T09:49:49.001Z</time>
      </trkpt>
      <trkpt lat="44.30546" lon="3.91396">
        <ele>817.01</ele>
        <time>2019-10-27T09:50:19.001Z</time>
      </trkpt>
      <trkpt lat="44.30527" lon="3.91305">
        <ele>826.013</ele>
        <time>2019-10-27T09:50:49.001Z</time>
      </trkpt>
      <trkpt lat="44.30572" lon="3.91245">
        <ele>829.925</ele>
        <time>2019-10-27T09:51:19.001Z</time>
      </trkpt>
      <trkpt lat="44.30622" lon="3.91197">
        <ele>839.573</ele>
        <time>2019-10-27T09:51:49.001Z</time>
      </trkpt>
      <trkpt lat="44.30648" lon="3.91125">
        <ele>851.146</ele>
        <time>2019-10-27T09:52:22.001Z</time>
      </trkpt>
      <trkpt lat="44.30656" lon="3.91033">
        <ele>858.843</ele>
        <time>2019-10-27T09:52:52.001Z</time>
      </trkpt>
      <trkpt lat="44.30671" lon="3.9087">
        <ele>861.234</ele>
        <time>2019-10-27T09:53:22.001Z</time>
      </trkpt>
      <trkpt lat="44.30576" lon="3.9056">
        <ele>848.771</ele>
        <time>2019-10-27T09:53:52.001Z</time>
      </trkpt>
      <trkpt lat="44.30751" lon="3.90498">
        <ele>807.303</ele>
        <time>2019-10-27T09:54:22.001Z</time>
      </trkpt>
      <trkpt lat="44.30891" lon="3.90369">
        <ele>806.841</ele>
        <time>2019-10-27T09:54:52.001Z</time>
      </trkpt>
      <trkpt lat="44.30941" lon="3.90265">
        <ele>821.098</ele>
        <time>2019-10-27T09:55:22.001Z</time>
      </trkpt>
      <trkpt lat="44.30969" lon="3.90186">
        <ele>836.526</ele>
        <time>2019-10-27T09:55:52.001Z</time>
      </trkpt>
      <trkpt lat="44.30992" lon="3.90099">
        <ele>847.454</ele>
        <time>2019-10-27T09:56:22.001Z</time>
      </trkpt>
      <trkpt lat="44.31029" lon="3.90016">
        <ele>845.607</ele>
        <time>2019-10-27T09:56:52.001Z</time>
      </trkpt>
      <trkpt lat="44.31083" lon="3.89945">
        <ele>838.285</ele>
        <time>2019-10-27T09:57:22.001Z</time>
      </trkpt>
      <trkpt lat="44.3114" lon="3.89895">
        <ele>836.223</ele>
        <time>2019-10-27T09:57:52.001Z</time>
      </trkpt>
      <trkpt lat="44.31175" lon="3.89833">
        <ele>845.882</ele>
        <time>2019-10-27T09:58:22.001Z</time>
      </trkpt>
      <trkpt lat="44.31208" lon="3.89756">
        <ele>852.092</ele>
        <time>2019-10-27T09:58:52.001Z</time>
      </trkpt>
      <trkpt lat="44.31225" lon="3.89665">
        <ele>842.927</ele>
        <time>2019-10-27T09:59:22.001Z</time>
      </trkpt>
      <trkpt lat="44.31261" lon="3.89584">
        <ele>842.597</ele>
        <time>2019-10-27T09:59:52.001Z</time>
      </trkpt>
      <trkpt lat="44.31293" lon="3.89512">
        <ele>850.892</ele>
        <time>2019-10-27T10:00:22.001Z</time>
      </trkpt>
      <trkpt lat="44.31278" lon="3.89429">
        <ele>858.045</ele>
        <time>2019-10-27T10:00:52.001Z</time>
      </trkpt>
      <trkpt lat="44.31243" lon="3.89345">
        <ele>860.033</ele>
        <time>2019-10-27T10:01:22.001Z</time>
      </trkpt>
      <trkpt lat="44.31203" lon="3.89283">
        <ele>858.646</ele>
        <time>2019-10-27T10:01:52.001Z</time>
      </trkpt>
      <trkpt lat="44.31169" lon="3.89226">
        <ele>861.241</ele>
        <time>2019-10-27T10:02:22.001Z</time>
      </trkpt>
      <trkpt lat="44.31136" lon="3.89161">
        <ele>867.85</ele>
        <time>2019-10-27T10:02:52.001Z</time>
      </trkpt>
      <trkpt lat="44.31107" lon="3.89095">
        <ele>867.896</ele>
        <time>2019-10-27T10:03:22.001Z</time>
      </trkpt>
      <trkpt lat="44.31071" lon="3.89034">
        <ele>870.979</ele>
        <time>2019-10-27T10:03:55.001Z</time>
      </trkpt>
      <trkpt lat="44.31037" lon="3.88969">
        <ele>876.568</ele>
        <time>2019-10-27T10:04:25.001Z</time>
      </trkpt>
      <trkpt lat="44.31018" lon="3.8889">
        <ele>886.435</ele>
        <time>2019-10-27T10:04:58.001Z</time>
      </trkpt>
      <trkpt lat="44.31023" lon="3.88811">
        <ele>893.18</ele>
        <time>2019-10-27T10:05:28.001Z</time>
      </trkpt>
      <trkpt lat="44.31023" lon="3.88725">
        <ele>899.115</ele>
        <time>2019-10-27T10:05:58.001Z</time>
      </trkpt>
      <trkpt lat="44.31036" lon="3.8864">
        <ele>899.548</ele>
        <time>2019-10-27T10:06:28.001Z</time>
      </trkpt>
      <trkpt lat="44.31044" lon="3.88569">
        <ele>908.943</ele>
        <time>2019-10-27T10:06:58.001Z</time>
      </trkpt>
      <trkpt lat="44.3105" lon="3.88481">
        <ele>907.07</ele>
        <time>2019-10-27T10:07:31.001Z</time>
      </trkpt>
      <trkpt lat="44.31055" lon="3.88402">
        <ele>903.868</ele>
        <time>2019-10-27T10:08:04.001Z</time>
      </trkpt>
      <trkpt lat="44.31062" lon="3.88311">
        <ele>910.335</ele>
        <time>2019-10-27T10:08:43.001Z</time>
      </trkpt>
      <trkpt lat="44.31066" lon="3.88238">
        <ele>908.742</ele>
        <time>2019-10-27T10:09:13.001Z</time>
      </trkpt>
      <trkpt lat="44.3106" lon="3.88154">
        <ele>908.837</ele>
        <time>2019-10-27T10:09:43.001Z</time>
      </trkpt>
      <trkpt lat="44.31052" lon="3.88074">
        <ele>911.696</ele>
        <time>2019-10-27T10:10:13.001Z</time>
      </trkpt>
      <trkpt lat="44.31037" lon="3.87996">
        <ele>914.749</ele>
        <time>2019-10-27T10:10:46.001Z</time>
      </trkpt>
      <trkpt lat="44.31012" lon="3.87933">
        <ele>921.585</ele>
        <time>2019-10-27T10:11:16Z</time>
      </trkpt>
      <trkpt lat="44.30977" lon="3.8787">
        <ele>932.03</ele>
        <time>2019-10-27T10:11:49.001Z</time>
      </trkpt>
      <trkpt lat="44.30954" lon="3.878">
        <ele>940.757</ele>
        <time>2019-10-27T10:12:19.001Z</time>
      </trkpt>
      <trkpt lat="44.30968" lon="3.87728">
        <ele>945.136</ele>
        <time>2019-10-27T10:12:52.001Z</time>
      </trkpt>
      <trkpt lat="44.30922" lon="3.87676">
        <ele>946.399</ele>
        <time>2019-10-27T10:13:37.001Z</time>
      </trkpt>
      <trkpt lat="44.30868" lon="3.87638">
        <ele>950.821</ele>
        <time>2019-10-27T10:14:16Z</time>
      </trkpt>
      <trkpt lat="44.30819" lon="3.87611">
        <ele>951.493</ele>
        <time>2019-10-27T10:14:46.001Z</time>
      </trkpt>
      <trkpt lat="44.30763" lon="3.87555">
        <ele>957.272</ele>
        <time>2019-10-27T10:15:31.001Z</time>
      </trkpt>
      <trkpt lat="44.3071" lon="3.87536">
        <ele>966.495</ele>
        <time>2019-10-27T10:16:04.001Z</time>
      </trkpt>
      <trkpt lat="44.30646" lon="3.87517">
        <ele>962.844</ele>
        <time>2019-10-27T10:16:43.001Z</time>
      </trkpt>
      <trkpt lat="44.30627" lon="3.8745">
        <ele>965.8</ele>
        <time>2019-10-27T10:17:16Z</time>
      </trkpt>
      <trkpt lat="44.30656" lon="3.8739">
        <ele>969.178</ele>
        <time>2019-10-27T10:17:49.001Z</time>
      </trkpt>
      <trkpt lat="44.307" lon="3.87342">
        <ele>970.363</ele>
        <time>2019-10-27T10:18:25.001Z</time>
      </trkpt>
      <trkpt lat="44.30761" lon="3.87325">
        <ele>976.251</ele>
        <time>2019-10-27T10:19:07.001Z</time>
      </trkpt>
      <trkpt lat="44.30802" lon="3.87241">
        <ele>991.431</ele>
        <time>2019-10-27T10:19:58.001Z</time>
      </trkpt>
      <trkpt lat="44.30816" lon="3.87175">
        <ele>1001.728</ele>
        <time>2019-10-27T10:20:28.001Z</time>
      </trkpt>
      <trkpt lat="44.30792" lon="3.87105">
        <ele>1004.049</ele>
        <time>2019-10-27T10:21:04.001Z</time>
      </trkpt>
      <trkpt lat="44.30755" lon="3.87056">
        <ele>1010.336</ele>
        <time>2019-10-27T10:21:34.001Z</time>
      </trkpt>
      <trkpt lat="44.30721" lon="3.87004">
        <ele>1014.729</ele>
        <time>2019-10-27T10:22:04.001Z</time>
      </trkpt>
      <trkpt lat="44.30707" lon="3.8693">
        <ele>1017.859</ele>
        <time>2019-10-27T10:22:37.001Z</time>
      </trkpt>
      <trkpt lat="44.30711" lon="3.86857">
        <ele>1023.654</ele>
        <time>2019-10-27T10:23:07.001Z</time>
      </trkpt>
      <trkpt lat="44.3072" lon="3.86792">
        <ele>1034.198</ele>
        <time>2019-10-27T10:23:37.001Z</time>
      </trkpt>
      <trkpt lat="44.30737" lon="3.86735">
        <ele>1040.591</ele>
        <time>2019-10-27T10:24:07.001Z</time>
      </trkpt>
      <trkpt lat="44.30744" lon="3.86661">
        <ele>1056.043</ele>
        <time>2019-10-27T10:24:40.001Z</time>
      </trkpt>
      <trkpt lat="44.30755" lon="3.86577">
        <ele>1056.526</ele>
        <time>2019-10-27T10:25:19.001Z</time>
      </trkpt>
      <trkpt lat="44.30756" lon="3.865">
        <ele>1052.237</ele>
        <time>2019-10-27T10:25:52.001Z</time>
      </trkpt>
      <trkpt lat="44.30764" lon="3.86425">
        <ele>1046.824</ele>
        <time>2019-10-27T10:26:25.001Z</time>
      </trkpt>
      <trkpt lat="44.30787" lon="3.86343">
        <ele>1049.775</ele>
        <time>2019-10-27T10:27:07.001Z</time>
      </trkpt>
      <trkpt lat="44.308" lon="3.86291">
        <ele>1057.709</ele>
        <time>2019-10-27T10:27:40.001Z</time>
      </trkpt>
      <trkpt lat="44.30815" lon="3.86225">
        <ele>1062.565</ele>
        <time>2019-10-27T10:28:10.001Z</time>
      </trkpt>
      <trkpt lat="44.30809" lon="3.86149">
        <ele>1076.076</ele>
        <time>2019-10-27T10:28:46.001Z</time>
      </trkpt>
      <trkpt lat="44.30791" lon="3.86076">
        <ele>1073.625</ele>
        <time>2019-10-27T10:29:22.001Z</time>
      </trkpt>
      <trkpt lat="44.30758" lon="3.85965">
        <ele>1071.375</ele>
        <time>2019-10-27T10:29:52.001Z</time>
      </trkpt>
      <trkpt lat="44.30728" lon="3.85844">
        <ele>1061.227</ele>
        <time>2019-10-27T10:30:22.001Z</time>
      </trkpt>
      <trkpt lat="44.3068" lon="3.85737">
        <ele>1069.723</ele>
        <time>2019-10-27T10:30:55.001Z</time>
      </trkpt>
      <trkpt lat="44.3057" lon="3.85613">
        <ele>1064.158</ele>
        <time>2019-10-27T10:31:25.001Z</time>
      </trkpt>
      <trkpt lat="44.30526" lon="3.85489">
        <ele>1053.15</ele>
        <time>2019-10-27T10:31:55.001Z</time>
      </trkpt>
      <trkpt lat="44.3064" lon="3.85193">
        <ele>1042.357</ele>
        <time>2019-10-27T10:32:25.001Z</time>
      </trkpt>
      <trkpt lat="44.30831" lon="3.85193">
        <ele>1025.225</ele>
        <time>2019-10-27T10:32:55.001Z</time>
      </trkpt>
      <trkpt lat="44.30997" lon="3.85021">
        <ele>1015.258</ele>
        <time>2019-10-27T10:33:25.001Z</time>
      </trkpt>
      <trkpt lat="44.31251" lon="3.84684">
        <ele>1002.815</ele>
        <time>2019-10-27T10:33:55.001Z</time>
      </trkpt>
      <trkpt lat="44.31365" lon="3.84501">
        <ele>1007.166</ele>
        <time>2019-10-27T10:34:25.001Z</time>
      </trkpt>
      <trkpt lat="44.3148" lon="3.84315">
        <ele>1014.142</ele>
        <time>2019-10-27T10:34:55.001Z</time>
      </trkpt>
      <trkpt lat="44.31531" lon="3.84237">
        <ele>1019.8</ele>
        <time>2019-10-27T10:35:25.001Z</time>
      </trkpt>
      <trkpt lat="44.31557" lon="3.84161">
        <ele>1031.775</ele>
        <time>2019-10-27T10:36:04.001Z</time>
      </trkpt>
      <trkpt lat="44.31582" lon="3.84093">
        <ele>1041.083</ele>
        <time>2019-10-27T10:36:40.001Z</time>
      </trkpt>
      <trkpt lat="44.31606" lon="3.84012">
        <ele>1040.352</ele>
        <time>2019-10-27T10:37:19.001Z</time>
      </trkpt>
      <trkpt lat="44.31626" lon="3.83933">
        <ele>1040.331</ele>
        <time>2019-10-27T10:37:55.001Z</time>
      </trkpt>
      <trkpt lat="44.31653" lon="3.83847">
        <ele>1047.137</ele>
        <time>2019-10-27T10:38:40.001Z</time>
      </trkpt>
      <trkpt lat="44.31665" lon="3.83775">
        <ele>1051.13</ele>
        <time>2019-10-27T10:39:13.001Z</time>
      </trkpt>
      <trkpt lat="44.31675" lon="3.83701">
        <ele>1052.149</ele>
        <time>2019-10-27T10:39:46.001Z</time>
      </trkpt>
      <trkpt lat="44.31688" lon="3.83629">
        <ele>1059.442</ele>
        <time>2019-10-27T10:40:19.001Z</time>
      </trkpt>
      <trkpt lat="44.31723" lon="3.83541">
        <ele>1059.055</ele>
        <time>2019-10-27T10:41:07.001Z</time>
      </trkpt>
      <trkpt lat="44.31763" lon="3.83469">
        <ele>1059.211</ele>
        <time>2019-10-27T10:41:52.001Z</time>
      </trkpt>
      <trkpt lat="44.31751" lon="3.83384">
        <ele>1063.769</ele>
        <time>2019-10-27T10:42:34.001Z</time>
      </trkpt>
      <trkpt lat="44.31743" lon="3.833">
        <ele>1069.177</ele>
        <time>2019-10-27T10:43:13.001Z</time>
      </trkpt>
      <trkpt lat="44.31776" lon="3.83238">
        <ele>1074.001</ele>
        <time>2019-10-27T10:43:52.001Z</time>
      </trkpt>
      <trkpt lat="44.3178" lon="3.83139">
        <ele>1081.141</ele>
        <time>2019-10-27T10:44:43.001Z</time>
      </trkpt>
      <trkpt lat="44.31779" lon="3.83033">
        <ele>1082.78</ele>
        <time>2019-10-27T10:45:37.001Z</time>
      </trkpt>
      <trkpt lat="44.31798" lon="3.82927">
        <ele>1083.368</ele>
        <time>2019-10-27T10:46:07.001Z</time>
      </trkpt>
      <trkpt lat="44.31875" lon="3.82815">
        <ele>1082.451</ele>
        <time>2019-10-27T10:46:37.001Z</time>
      </trkpt>
      <trkpt lat="44.31959" lon="3.82751">
        <ele>1087.276</ele>
        <time>2019-10-27T10:47:07.001Z</time>
      </trkpt>
      <trkpt lat="44.32036" lon="3.82755">
        <ele>1091.746</ele>
        <time>2019-10-27T10:48:52.001Z</time>
      </trkpt>
      <trkpt lat="44.3211" lon="3.82645">
        <ele>1091.335</ele>
        <time>2019-10-27T10:49:22.001Z</time>
      </trkpt>
      <trkpt lat="44.32102" lon="3.8247">
        <ele>1084.927</ele>
        <time>2019-10-27T10:49:52.001Z</time>
      </trkpt>
      <trkpt lat="44.3204" lon="3.82306">
        <ele>1082.158</ele>
        <time>2019-10-27T10:50:22.001Z</time>
      </trkpt>
      <trkpt lat="44.31952" lon="3.82182">
        <ele>1077.17</ele>
        <time>2019-10-27T10:50:52.001Z</time>
      </trkpt>
      <trkpt lat="44.31952" lon="3.82089">
        <ele>1083.325</ele>
        <time>2019-10-27T10:51:22.001Z</time>
      </trkpt>
      <trkpt lat="44.32045" lon="3.82088">
        <ele>1100.718</ele>
        <time>2019-10-27T10:51:52.001Z</time>
      </trkpt>
      <trkpt lat="44.32133" lon="3.82097">
        <ele>1117.383</ele>
        <time>2019-10-27T10:52:22.001Z</time>
      </trkpt>
      <trkpt lat="44.322" lon="3.82073">
        <ele>1115.686</ele>
        <time>2019-10-27T10:52:52.001Z</time>
      </trkpt>
      <trkpt lat="44.32288" lon="3.82023">
        <ele>1110.123</ele>
        <time>2019-10-27T10:53:22.001Z</time>
      </trkpt>
      <trkpt lat="44.32383" lon="3.81942">
        <ele>1105.306</ele>
        <time>2019-10-27T10:53:52.001Z</time>
      </trkpt>
      <trkpt lat="44.32465" lon="3.81889">
        <ele>1108.32</ele>
        <time>2019-10-27T10:54:22.001Z</time>
      </trkpt>
      <trkpt lat="44.32543" lon="3.81828">
        <ele>1112.488</ele>
        <time>2019-10-27T10:54:52.001Z</time>
      </trkpt>
      <trkpt lat="44.32613" lon="3.81721">
        <ele>1105.874</ele>
        <time>2019-10-27T10:55:22.001Z</time>
      </trkpt>
      <trkpt lat="44.32745" lon="3.81595">
        <ele>1099.499</ele>
        <time>2019-10-27T10:55:52.001Z</time>
      </trkpt>
      <trkpt lat="44.3298" lon="3.81599">
        <ele>1089.131</ele>
        <time>2019-10-27T10:56:22.001Z</time>
      </trkpt>
      <trkpt lat="44.33165" lon="3.81745">
        <ele>1080.958</ele>
        <time>2019-10-27T10:56:52.001Z</time>
      </trkpt>
      <trkpt lat="44.33223" lon="3.81677">
        <ele>1074.08</ele>
        <time>2019-10-27T10:57:25.001Z</time>
      </trkpt>
      <trkpt lat="44.33221" lon="3.81677">
        <ele>1074.457</ele>
        <time>2019-10-27T11:08:52.001Z</time>
      </trkpt>
      <trkpt lat="44.33292" lon="3.81605">
        <ele>1075.827</ele>
        <time>2019-10-27T11:11:49.001Z</time>
      </trkpt>
      <trkpt lat="44.33367" lon="3.81502">
        <ele>1073.233</ele>
        <time>2019-10-27T11:12:22.001Z</time>
      </trkpt>
      <trkpt lat="44.33426" lon="3.8125">
        <ele>1064.118</ele>
        <time>2019-10-27T11:12:52.001Z</time>
      </trkpt>
      <trkpt lat="44.33449" lon="3.80923">
        <ele>1057.144</ele>
        <time>2019-10-27T11:13:22.001Z</time>
      </trkpt>
      <trkpt lat="44.33363" lon="3.80658">
        <ele>1057.469</ele>
        <time>2019-10-27T11:13:52.001Z</time>
      </trkpt>
      <trkpt lat="44.33206" lon="3.80278">
        <ele>1052.082</ele>
        <time>2019-10-27T11:14:22.001Z</time>
      </trkpt>
      <trkpt lat="44.33244" lon="3.80037">
        <ele>1044.088</ele>
        <time>2019-10-27T11:14:52.001Z</time>
      </trkpt>
      <trkpt lat="44.33278" lon="3.79717">
        <ele>1042.284</ele>
        <time>2019-10-27T11:15:22.001Z</time>
      </trkpt>
      <trkpt lat="44.33456" lon="3.79618">
        <ele>1026.364</ele>
        <time>2019-10-27T11:15:52.001Z</time>
      </trkpt>
      <trkpt lat="44.33613" lon="3.79451">
        <ele>1014.829</ele>
        <time>2019-10-27T11:16:22.001Z</time>
      </trkpt>
      <trkpt lat="44.33787" lon="3.79296">
        <ele>1011.914</ele>
        <time>2019-10-27T11:16:52.001Z</time>
      </trkpt>
      <trkpt lat="44.33917" lon="3.79086">
        <ele>1009.645</ele>
        <time>2019-10-27T11:17:22.001Z</time>
      </trkpt>
      <trkpt lat="44.34092" lon="3.7894">
        <ele>1020.428</ele>
        <time>2019-10-27T11:17:52.001Z</time>
      </trkpt>
      <trkpt lat="44.34284" lon="3.78796">
        <ele>1016.692</ele>
        <time>2019-10-27T11:18:22.001Z</time>
      </trkpt>
      <trkpt lat="44.34486" lon="3.78772">
        <ele>1009.197</ele>
        <time>2019-10-27T11:18:52.001Z</time>
      </trkpt>
      <trkpt lat="44.34681" lon="3.78766">
        <ele>1016.176</ele>
        <time>2019-10-27T11:19:22.001Z</time>
      </trkpt>
      <trkpt lat="44.3483" lon="3.78605">
        <ele>1015.233</ele>
        <time>2019-10-27T11:19:52.001Z</time>
      </trkpt>
      <trkpt lat="44.35027" lon="3.78415">
        <ele>1003.725</ele>
        <time>2019-10-27T11:20:22.001Z</time>
      </trkpt>
      <trkpt lat="44.35225" lon="3.7819">
        <ele>984.609</ele>
        <time>2019-10-27T11:20:52.001Z</time>
      </trkpt>
      <trkpt lat="44.35435" lon="3.77954">
        <ele>972.367</ele>
        <time>2019-10-27T11:21:22.001Z</time>
      </trkpt>
      <trkpt lat="44.356" lon="3.77782">
        <ele>966.921</ele>
        <time>2019-10-27T11:21:52.001Z</time>
      </trkpt>
      <trkpt lat="44.35713" lon="3.77594">
        <ele>967.804</ele>
        <time>2019-10-27T11:22:22.001Z</time>
      </trkpt>
      <trkpt lat="44.35844" lon="3.77414">
        <ele>971.9</ele>
        <time>2019-10-27T11:22:52.001Z</time>
      </trkpt>
      <trkpt lat="44.35908" lon="3.77167">
        <ele>978.869</ele>
        <time>2019-10-27T11:23:22.001Z</time>
      </trkpt>
      <trkpt lat="44.35761" lon="3.77091">
        <ele>980.337</ele>
        <time>2019-10-27T11:23:52.001Z</time>
      </trkpt>
      <trkpt lat="44.35901" lon="3.76867">
        <ele>976.315</ele>
        <time>2019-10-27T11:24:22.001Z</time>
      </trkpt>
      <trkpt lat="44.3615" lon="3.76675">
        <ele>954.657</ele>
        <time>2019-10-27T11:24:52.001Z</time>
      </trkpt>
      <trkpt lat="44.36155" lon="3.76622">
        <ele>955.007</ele>
        <time>2019-10-27T11:26:10.001Z</time>
      </trkpt>
      <trkpt lat="44.36155" lon="3.76628">
        <ele>952.974</ele>
        <time>2019-10-27T11:29:31.001Z</time>
      </trkpt>
      <trkpt lat="44.36062" lon="3.76607">
        <ele>951.06</ele>
        <time>2019-10-27T11:30:40.001Z</time>
      </trkpt>
      <trkpt lat="44.3603" lon="3.76322">
        <ele>951.299</ele>
        <time>2019-10-27T11:31:10.001Z</time>
      </trkpt>
      <trkpt lat="44.36019" lon="3.75932">
        <ele>944.729</ele>
        <time>2019-10-27T11:31:40.001Z</time>
      </trkpt>
      <trkpt lat="44.36099" lon="3.75554">
        <ele>926.843</ele>
        <time>2019-10-27T11:32:10.001Z</time>
      </trkpt>
      <trkpt lat="44.36346" lon="3.75233">
        <ele>908.388</ele>
        <time>2019-10-27T11:32:40.001Z</time>
      </trkpt>
      <trkpt lat="44.36335" lon="3.74868">
        <ele>891.823</ele>
        <time>2019-10-27T11:33:10.001Z</time>
      </trkpt>
      <trkpt lat="44.36309" lon="3.74635">
        <ele>877.477</ele>
        <time>2019-10-27T11:33:40.001Z</time>
      </trkpt>
      <trkpt lat="44.36304" lon="3.74484">
        <ele>877.061</ele>
        <time>2019-10-27T11:35:01.001Z</time>
      </trkpt>
      <trkpt lat="44.36322" lon="3.74396">
        <ele>876.201</ele>
        <time>2019-10-27T11:43:34.001Z</time>
      </trkpt>
      <trkpt lat="44.36367" lon="3.74342">
        <ele>870.469</ele>
        <time>2019-10-27T11:44:04.001Z</time>
      </trkpt>
      <trkpt lat="44.36388" lon="3.74261">
        <ele>871.419</ele>
        <time>2019-10-27T11:44:37.001Z</time>
      </trkpt>
      <trkpt lat="44.36432" lon="3.74208">
        <ele>880.354</ele>
        <time>2019-10-27T11:45:10.001Z</time>
      </trkpt>
      <trkpt lat="44.36472" lon="3.74146">
        <ele>892.594</ele>
        <time>2019-10-27T11:45:46.001Z</time>
      </trkpt>
      <trkpt lat="44.36516" lon="3.74095">
        <ele>893.241</ele>
        <time>2019-10-27T11:46:16Z</time>
      </trkpt>
      <trkpt lat="44.36557" lon="3.74041">
        <ele>894.767</ele>
        <time>2019-10-27T11:46:46.001Z</time>
      </trkpt>
      <trkpt lat="44.36592" lon="3.73982">
        <ele>896.706</ele>
        <time>2019-10-27T11:47:16Z</time>
      </trkpt>
      <trkpt lat="44.36621" lon="3.73917">
        <ele>903.415</ele>
        <time>2019-10-27T11:47:46.001Z</time>
      </trkpt>
      <trkpt lat="44.36645" lon="3.7384">
        <ele>906.808</ele>
        <time>2019-10-27T11:48:16Z</time>
      </trkpt>
      <trkpt lat="44.36685" lon="3.73778">
        <ele>907.266</ele>
        <time>2019-10-27T11:48:46.001Z</time>
      </trkpt>
      <trkpt lat="44.36667" lon="3.73697">
        <ele>912.339</ele>
        <time>2019-10-27T11:49:16Z</time>
      </trkpt>
      <trkpt lat="44.36683" lon="3.73603">
        <ele>910.475</ele>
        <time>2019-10-27T11:49:49.001Z</time>
      </trkpt>
      <trkpt lat="44.36707" lon="3.73531">
        <ele>916.572</ele>
        <time>2019-10-27T11:50:19.001Z</time>
      </trkpt>
      <trkpt lat="44.36731" lon="3.73455">
        <ele>918.831</ele>
        <time>2019-10-27T11:50:49.001Z</time>
      </trkpt>
      <trkpt lat="44.36709" lon="3.7338">
        <ele>920.645</ele>
        <time>2019-10-27T11:51:19.001Z</time>
      </trkpt>
      <trkpt lat="44.36637" lon="3.73413">
        <ele>928.065</ele>
        <time>2019-10-27T11:51:52.001Z</time>
      </trkpt>
      <trkpt lat="44.36541" lon="3.73423">
        <ele>926.337</ele>
        <time>2019-10-27T11:52:22.001Z</time>
      </trkpt>
      <trkpt lat="44.36537" lon="3.73421">
        <ele>928.286</ele>
        <time>2019-10-27T11:53:19.001Z</time>
      </trkpt>
      <trkpt lat="44.36469" lon="3.73436">
        <ele>925.687</ele>
        <time>2019-10-27T11:54:16Z</time>
      </trkpt>
      <trkpt lat="44.3636" lon="3.73484">
        <ele>923.292</ele>
        <time>2019-10-27T11:54:46.001Z</time>
      </trkpt>
      <trkpt lat="44.3625" lon="3.73508">
        <ele>920.96</ele>
        <time>2019-10-27T11:55:16Z</time>
      </trkpt>
      <trkpt lat="44.36137" lon="3.73485">
        <ele>928.911</ele>
        <time>2019-10-27T11:55:46.001Z</time>
      </trkpt>
      <trkpt lat="44.36236" lon="3.73305">
        <ele>919.519</ele>
        <time>2019-10-27T11:56:16Z</time>
      </trkpt>
      <trkpt lat="44.36229" lon="3.73013">
        <ele>910.096</ele>
        <time>2019-10-27T11:56:46.001Z</time>
      </trkpt>
      <trkpt lat="44.36211" lon="3.72754">
        <ele>899.721</ele>
        <time>2019-10-27T11:57:16Z</time>
      </trkpt>
      <trkpt lat="44.36213" lon="3.72528">
        <ele>897.844</ele>
        <time>2019-10-27T11:57:46.001Z</time>
      </trkpt>
      <trkpt lat="44.36199" lon="3.72204">
        <ele>890.494</ele>
        <time>2019-10-27T11:58:16Z</time>
      </trkpt>
      <trkpt lat="44.36194" lon="3.71984">
        <ele>880.201</ele>
        <time>2019-10-27T11:58:46.001Z</time>
      </trkpt>
      <trkpt lat="44.36137" lon="3.71769">
        <ele>869.989</ele>
        <time>2019-10-27T11:59:16Z</time>
      </trkpt>
      <trkpt lat="44.36106" lon="3.71525">
        <ele>859.175</ele>
        <time>2019-10-27T11:59:46.001Z</time>
      </trkpt>
      <trkpt lat="44.36107" lon="3.71522">
        <ele>858.109</ele>
        <time>2019-10-27T12:04:01.001Z</time>
      </trkpt>
      <trkpt lat="44.36127" lon="3.71484">
        <ele>859.615</ele>
        <time>2019-10-27T12:08:34.001Z</time>
      </trkpt>
      <trkpt lat="44.36109" lon="3.71511">
        <ele>861.326</ele>
        <time>2019-10-27T12:16:19.001Z</time>
      </trkpt>
      <trkpt lat="44.36103" lon="3.71527">
        <ele>860.931</ele>
        <time>2019-10-27T12:18:31.001Z</time>
      </trkpt>
      <trkpt lat="44.36101" lon="3.71521">
        <ele>859.589</ele>
        <time>2019-10-27T12:25:10.001Z</time>
      </trkpt>
      <trkpt lat="44.36106" lon="3.71521">
        <ele>861.969</ele>
        <time>2019-10-27T12:26:25.001Z</time>
      </trkpt>
      <trkpt lat="44.36106" lon="3.71521">
        <ele>861.969</ele>
        <time>2019-10-27T12:28:07.001Z</time>
      </trkpt>
      <trkpt lat="44.36121" lon="3.71513">
        <ele>862.956</ele>
        <time>2019-10-27T12:33:31.001Z</time>
      </trkpt>
      <trkpt lat="44.36265" lon="3.71317">
        <ele>866.159</ele>
        <time>2019-10-27T12:34:01.001Z</time>
      </trkpt>
      <trkpt lat="44.36373" lon="3.70978">
        <ele>855.297</ele>
        <time>2019-10-27T12:34:31.001Z</time>
      </trkpt>
      <trkpt lat="44.36544" lon="3.70721">
        <ele>835.139</ele>
        <time>2019-10-27T12:35:01.001Z</time>
      </trkpt>
      <trkpt lat="44.36657" lon="3.70516">
        <ele>825.307</ele>
        <time>2019-10-27T12:35:31.001Z</time>
      </trkpt>
      <trkpt lat="44.36671" lon="3.7026">
        <ele>804.992</ele>
        <time>2019-10-27T12:36:01.001Z</time>
      </trkpt>
      <trkpt lat="44.36688" lon="3.69954">
        <ele>790.464</ele>
        <time>2019-10-27T12:36:31.001Z</time>
      </trkpt>
      <trkpt lat="44.36513" lon="3.69708">
        <ele>768.742</ele>
        <time>2019-10-27T12:37:01.001Z</time>
      </trkpt>
      <trkpt lat="44.36374" lon="3.69304">
        <ele>749.832</ele>
        <time>2019-10-27T12:37:31.001Z</time>
      </trkpt>
      <trkpt lat="44.36433" lon="3.68885">
        <ele>738.343</ele>
        <time>2019-10-27T12:38:01.001Z</time>
      </trkpt>
      <trkpt lat="44.36341" lon="3.68602">
        <ele>722.335</ele>
        <time>2019-10-27T12:38:31.001Z</time>
      </trkpt>
      <trkpt lat="44.36449" lon="3.68417">
        <ele>701.318</ele>
        <time>2019-10-27T12:39:01.001Z</time>
      </trkpt>
      <trkpt lat="44.36252" lon="3.68487">
        <ele>694.3</ele>
        <time>2019-10-27T12:39:31.001Z</time>
      </trkpt>
      <trkpt lat="44.36126" lon="3.68419">
        <ele>709.152</ele>
        <time>2019-10-27T12:40:01.001Z</time>
      </trkpt>
      <trkpt lat="44.36199" lon="3.68191">
        <ele>704.751</ele>
        <time>2019-10-27T12:40:31.001Z</time>
      </trkpt>
      <trkpt lat="44.36149" lon="3.68018">
        <ele>701.751</ele>
        <time>2019-10-27T12:41:01.001Z</time>
      </trkpt>
      <trkpt lat="44.36066" lon="3.67785">
        <ele>687.683</ele>
        <time>2019-10-27T12:41:31.001Z</time>
      </trkpt>
      <trkpt lat="44.36166" lon="3.67528">
        <ele>685.914</ele>
        <time>2019-10-27T12:42:01.001Z</time>
      </trkpt>
      <trkpt lat="44.3626" lon="3.67234">
        <ele>690.145</ele>
        <time>2019-10-27T12:42:31.001Z</time>
      </trkpt>
      <trkpt lat="44.36116" lon="3.66999">
        <ele>677.925</ele>
        <time>2019-10-27T12:43:01.001Z</time>
      </trkpt>
      <trkpt lat="44.35909" lon="3.66891">
        <ele>668.477</ele>
        <time>2019-10-27T12:43:31.001Z</time>
      </trkpt>
      <trkpt lat="44.35763" lon="3.66804">
        <ele>658.093</ele>
        <time>2019-10-27T12:44:01.001Z</time>
      </trkpt>
      <trkpt lat="44.35705" lon="3.66675">
        <ele>659.256</ele>
        <time>2019-10-27T12:44:34.001Z</time>
      </trkpt>
      <trkpt lat="44.35697" lon="3.66536">
        <ele>663.254</ele>
        <time>2019-10-27T12:45:04.001Z</time>
      </trkpt>
      <trkpt lat="44.35708" lon="3.66368">
        <ele>660.638</ele>
        <time>2019-10-27T12:45:34.001Z</time>
      </trkpt>
      <trkpt lat="44.35718" lon="3.66164">
        <ele>664.647</ele>
        <time>2019-10-27T12:46:04.001Z</time>
      </trkpt>
      <trkpt lat="44.3559" lon="3.66052">
        <ele>658.068</ele>
        <time>2019-10-27T12:46:34.001Z</time>
      </trkpt>
      <trkpt lat="44.35583" lon="3.65809">
        <ele>652.206</ele>
        <time>2019-10-27T12:47:04.001Z</time>
      </trkpt>
      <trkpt lat="44.35643" lon="3.65453">
        <ele>646.011</ele>
        <time>2019-10-27T12:47:34.001Z</time>
      </trkpt>
      <trkpt lat="44.35522" lon="3.65203">
        <ele>627.821</ele>
        <time>2019-10-27T12:48:04.001Z</time>
      </trkpt>
      <trkpt lat="44.35423" lon="3.64967">
        <ele>617.438</ele>
        <time>2019-10-27T12:48:34.001Z</time>
      </trkpt>
      <trkpt lat="44.3545" lon="3.64737">
        <ele>621.825</ele>
        <time>2019-10-27T12:49:04.001Z</time>
      </trkpt>
      <trkpt lat="44.35524" lon="3.64543">
        <ele>630.976</ele>
        <time>2019-10-27T12:49:34.001Z</time>
      </trkpt>
      <trkpt lat="44.35602" lon="3.64346">
        <ele>623.005</ele>
        <time>2019-10-27T12:50:04.001Z</time>
      </trkpt>
      <trkpt lat="44.35717" lon="3.64255">
        <ele>623.992</ele>
        <time>2019-10-27T12:50:34.001Z</time>
      </trkpt>
      <trkpt lat="44.35779" lon="3.6417">
        <ele>623.144</ele>
        <time>2019-10-27T12:51:04.001Z</time>
      </trkpt>
      <trkpt lat="44.35615" lon="3.63939">
        <ele>608.279</ele>
        <time>2019-10-27T12:51:34.001Z</time>
      </trkpt>
      <trkpt lat="44.35568" lon="3.63855">
        <ele>612.262</ele>
        <time>2019-10-27T12:52:04.001Z</time>
      </trkpt>
      <trkpt lat="44.35508" lon="3.63786">
        <ele>614.28</ele>
        <time>2019-10-27T12:52:34.001Z</time>
      </trkpt>
      <trkpt lat="44.3545" lon="3.63712">
        <ele>613.133</ele>
        <time>2019-10-27T12:53:04.001Z</time>
      </trkpt>
      <trkpt lat="44.35415" lon="3.6343">
        <ele>608.877</ele>
        <time>2019-10-27T12:53:34.001Z</time>
      </trkpt>
      <trkpt lat="44.35411" lon="3.63129">
        <ele>607.786</ele>
        <time>2019-10-27T12:54:04.001Z</time>
      </trkpt>
      <trkpt lat="44.35401" lon="3.63051">
        <ele>612.292</ele>
        <time>2019-10-27T12:54:34.001Z</time>
      </trkpt>
      <trkpt lat="44.35368" lon="3.62994">
        <ele>610.288</ele>
        <time>2019-10-27T12:55:04.001Z</time>
      </trkpt>
      <trkpt lat="44.3531" lon="3.62992">
        <ele>611.053</ele>
        <time>2019-10-27T12:55:34.001Z</time>
      </trkpt>
      <trkpt lat="44.35228" lon="3.62981">
        <ele>612.002</ele>
        <time>2019-10-27T12:56:04.001Z</time>
      </trkpt>
      <trkpt lat="44.35136" lon="3.63037">
        <ele>617.3</ele>
        <time>2019-10-27T12:56:34.001Z</time>
      </trkpt>
      <trkpt lat="44.35051" lon="3.63124">
        <ele>617.634</ele>
        <time>2019-10-27T12:57:04.001Z</time>
      </trkpt>
      <trkpt lat="44.34946" lon="3.63113">
        <ele>620.443</ele>
        <time>2019-10-27T12:57:34.001Z</time>
      </trkpt>
      <trkpt lat="44.34933" lon="3.62966">
        <ele>618.237</ele>
        <time>2019-10-27T12:58:04.001Z</time>
      </trkpt>
      <trkpt lat="44.34911" lon="3.62827">
        <ele>626.251</ele>
        <time>2019-10-27T12:58:34.001Z</time>
      </trkpt>
      <trkpt lat="44.34905" lon="3.62681">
        <ele>625.545</ele>
        <time>2019-10-27T12:59:04.001Z</time>
      </trkpt>
      <trkpt lat="44.34874" lon="3.62516">
        <ele>628.418</ele>
        <time>2019-10-27T12:59:34.001Z</time>
      </trkpt>
      <trkpt lat="44.34871" lon="3.62288">
        <ele>618.005</ele>
        <time>2019-10-27T13:00:04.001Z</time>
      </trkpt>
      <trkpt lat="44.34732" lon="3.61964">
        <ele>615.771</ele>
        <time>2019-10-27T13:00:34.001Z</time>
      </trkpt>
      <trkpt lat="44.34558" lon="3.61621">
        <ele>594.74</ele>
        <time>2019-10-27T13:01:04.001Z</time>
      </trkpt>
      <trkpt lat="44.34501" lon="3.61189">
        <ele>567.028</ele>
        <time>2019-10-27T13:01:34.001Z</time>
      </trkpt>
      <trkpt lat="44.34449" lon="3.60945">
        <ele>561.338</ele>
        <time>2019-10-27T13:02:04.001Z</time>
      </trkpt>
      <trkpt lat="44.34454" lon="3.60846">
        <ele>568.833</ele>
        <time>2019-10-27T13:02:34.001Z</time>
      </trkpt>
      <trkpt lat="44.34428" lon="3.60669">
        <ele>571.115</ele>
        <time>2019-10-27T13:03:04.001Z</time>
      </trkpt>
      <trkpt lat="44.34378" lon="3.6049">
        <ele>563.502</ele>
        <time>2019-10-27T13:03:34.001Z</time>
      </trkpt>
      <trkpt lat="44.34372" lon="3.60468">
        <ele>563.503</ele>
        <time>2019-10-27T13:04:31.001Z</time>
      </trkpt>
      <trkpt lat="44.34344" lon="3.60358">
        <ele>563.991</ele>
        <time>2019-10-27T13:05:28.001Z</time>
      </trkpt>
      <trkpt lat="44.34324" lon="3.60239">
        <ele>569.912</ele>
        <time>2019-10-27T13:05:58.001Z</time>
      </trkpt>
      <trkpt lat="44.34336" lon="3.6015">
        <ele>575.371</ele>
        <time>2019-10-27T13:06:28.001Z</time>
      </trkpt>
      <trkpt lat="44.34364" lon="3.60085">
        <ele>581.104</ele>
        <time>2019-10-27T13:06:58.001Z</time>
      </trkpt>
      <trkpt lat="44.34373" lon="3.6001">
        <ele>584.015</ele>
        <time>2019-10-27T13:07:28.001Z</time>
      </trkpt>
      <trkpt lat="44.3437" lon="3.59927">
        <ele>589.799</ele>
        <time>2019-10-27T13:07:58.001Z</time>
      </trkpt>
      <trkpt lat="44.34356" lon="3.59844">
        <ele>599.16</ele>
        <time>2019-10-27T13:08:28.001Z</time>
      </trkpt>
      <trkpt lat="44.34347" lon="3.59746">
        <ele>602.719</ele>
        <time>2019-10-27T13:09:01.001Z</time>
      </trkpt>
      <trkpt lat="44.34329" lon="3.59649">
        <ele>599.905</ele>
        <time>2019-10-27T13:09:31.001Z</time>
      </trkpt>
      <trkpt lat="44.3429" lon="3.5956">
        <ele>595.018</ele>
        <time>2019-10-27T13:10:01.001Z</time>
      </trkpt>
      <trkpt lat="44.34093" lon="3.59676">
        <ele>588.706</ele>
        <time>2019-10-27T13:10:31.001Z</time>
      </trkpt>
      <trkpt lat="44.33737" lon="3.59659">
        <ele>575.373</ele>
        <time>2019-10-27T13:11:01.001Z</time>
      </trkpt>
      <trkpt lat="44.3362" lon="3.59381">
        <ele>560.747</ele>
        <time>2019-10-27T13:11:31.001Z</time>
      </trkpt>
      <trkpt lat="44.3358" lon="3.58858">
        <ele>553.734</ele>
        <time>2019-10-27T13:12:01.001Z</time>
      </trkpt>
      <trkpt lat="44.3366" lon="3.58739">
        <ele>551.759</ele>
        <time>2019-10-27T13:12:31.001Z</time>
      </trkpt>
      <trkpt lat="44.33744" lon="3.58723">
        <ele>548.843</ele>
        <time>2019-10-27T13:13:01.001Z</time>
      </trkpt>
      <trkpt lat="44.33841" lon="3.58681">
        <ele>548.463</ele>
        <time>2019-10-27T13:13:31.001Z</time>
      </trkpt>
      <trkpt lat="44.33956" lon="3.58608">
        <ele>546.293</ele>
        <time>2019-10-27T13:14:01.001Z</time>
      </trkpt>
      <trkpt lat="44.34066" lon="3.58535">
        <ele>546.477</ele>
        <time>2019-10-27T13:14:31.001Z</time>
      </trkpt>
      <trkpt lat="44.34213" lon="3.58437">
        <ele>546.696</ele>
        <time>2019-10-27T13:15:01.001Z</time>
      </trkpt>
      <trkpt lat="44.34372" lon="3.58247">
        <ele>547.087</ele>
        <time>2019-10-27T13:15:31.001Z</time>
      </trkpt>
      <trkpt lat="44.34504" lon="3.58076">
        <ele>546.287</ele>
        <time>2019-10-27T13:16:01.001Z</time>
      </trkpt>
      <trkpt lat="44.34585" lon="3.57949">
        <ele>549.423</ele>
        <time>2019-10-27T13:16:31.001Z</time>
      </trkpt>
      <trkpt lat="44.34621" lon="3.57866">
        <ele>554.853</ele>
        <time>2019-10-27T13:17:01.001Z</time>
      </trkpt>
      <trkpt lat="44.34645" lon="3.57779">
        <ele>564.058</ele>
        <time>2019-10-27T13:17:31.001Z</time>
      </trkpt>
      <trkpt lat="44.34696" lon="3.57709">
        <ele>561.339</ele>
        <time>2019-10-27T13:18:01.001Z</time>
      </trkpt>
      <trkpt lat="44.34803" lon="3.57703">
        <ele>564.028</ele>
        <time>2019-10-27T13:18:31.001Z</time>
      </trkpt>
      <trkpt lat="44.35001" lon="3.57715">
        <ele>556.864</ele>
        <time>2019-10-27T13:19:01.001Z</time>
      </trkpt>
      <trkpt lat="44.35265" lon="3.5773">
        <ele>547.56</ele>
        <time>2019-10-27T13:19:31.001Z</time>
      </trkpt>
      <trkpt lat="44.35357" lon="3.57728">
        <ele>550.653</ele>
        <time>2019-10-27T13:20:01.001Z</time>
      </trkpt>
      <trkpt lat="44.3543" lon="3.57727">
        <ele>558.088</ele>
        <time>2019-10-27T13:20:31.001Z</time>
      </trkpt>
      <trkpt lat="44.35505" lon="3.57701">
        <ele>565.045</ele>
        <time>2019-10-27T13:21:01.001Z</time>
      </trkpt>
      <trkpt lat="44.35598" lon="3.57662">
        <ele>566.034</ele>
        <time>2019-10-27T13:21:31.001Z</time>
      </trkpt>
      <trkpt lat="44.35657" lon="3.57523">
        <ele>569.083</ele>
        <time>2019-10-27T13:22:01.001Z</time>
      </trkpt>
      <trkpt lat="44.35688" lon="3.57398">
        <ele>567.443</ele>
        <time>2019-10-27T13:22:31.001Z</time>
      </trkpt>
      <trkpt lat="44.35708" lon="3.57276">
        <ele>570.072</ele>
        <time>2019-10-27T13:23:01.001Z</time>
      </trkpt>
      <trkpt lat="44.35736" lon="3.57169">
        <ele>573.203</ele>
        <time>2019-10-27T13:23:31.001Z</time>
      </trkpt>
      <trkpt lat="44.3575" lon="3.57068">
        <ele>582.197</ele>
        <time>2019-10-27T13:24:01.001Z</time>
      </trkpt>
      <trkpt lat="44.35765" lon="3.56955">
        <ele>580.796</ele>
        <time>2019-10-27T13:24:31.001Z</time>
      </trkpt>
      <trkpt lat="44.35827" lon="3.56873">
        <ele>581.18</ele>
        <time>2019-10-27T13:25:01.001Z</time>
      </trkpt>
      <trkpt lat="44.35975" lon="3.5689">
        <ele>577.483</ele>
        <time>2019-10-27T13:25:31.001Z</time>
      </trkpt>
      <trkpt lat="44.36173" lon="3.56804">
        <ele>572.535</ele>
        <time>2019-10-27T13:26:01.001Z</time>
      </trkpt>
      <trkpt lat="44.36279" lon="3.56384">
        <ele>558.312</ele>
        <time>2019-10-27T13:26:31.001Z</time>
      </trkpt>
      <trkpt lat="44.36196" lon="3.55979">
        <ele>545.521</ele>
        <time>2019-10-27T13:27:01.001Z</time>
      </trkpt>
      <trkpt lat="44.36404" lon="3.5575">
        <ele>536.525</ele>
        <time>2019-10-27T13:27:31.001Z</time>
      </trkpt>
      <trkpt lat="44.36716" lon="3.55694">
        <ele>526.147</ele>
        <time>2019-10-27T13:28:01.001Z</time>
      </trkpt>
      <trkpt lat="44.36993" lon="3.5565">
        <ele>521.233</ele>
        <time>2019-10-27T13:28:31.001Z</time>
      </trkpt>
      <trkpt lat="44.37178" lon="3.55593">
        <ele>523.415</ele>
        <time>2019-10-27T13:29:01.001Z</time>
      </trkpt>
      <trkpt lat="44.37312" lon="3.55526">
        <ele>524.791</ele>
        <time>2019-10-27T13:29:31.001Z</time>
      </trkpt>
      <trkpt lat="44.37428" lon="3.55427">
        <ele>526.131</ele>
        <time>2019-10-27T13:30:01.001Z</time>
      </trkpt>
      <trkpt lat="44.37539" lon="3.55315">
        <ele>523.838</ele>
        <time>2019-10-27T13:30:31.001Z</time>
      </trkpt>
      <trkpt lat="44.37661" lon="3.55117">
        <ele>529.544</ele>
        <time>2019-10-27T13:31:01.001Z</time>
      </trkpt>
      <trkpt lat="44.3773" lon="3.54896">
        <ele>518.239</ele>
        <time>2019-10-27T13:31:31.001Z</time>
      </trkpt>
      <trkpt lat="44.37729" lon="3.54691">
        <ele>518.233</ele>
        <time>2019-10-27T13:32:01.001Z</time>
      </trkpt>
      <trkpt lat="44.37686" lon="3.54484">
        <ele>520.902</ele>
        <time>2019-10-27T13:32:31.001Z</time>
      </trkpt>
      <trkpt lat="44.3756" lon="3.5431">
        <ele>514.111</ele>
        <time>2019-10-27T13:33:04.001Z</time>
      </trkpt>
      <trkpt lat="44.3743" lon="3.54162">
        <ele>511.995</ele>
        <time>2019-10-27T13:33:34.001Z</time>
      </trkpt>
      <trkpt lat="44.37286" lon="3.54033">
        <ele>510.248</ele>
        <time>2019-10-27T13:34:04.001Z</time>
      </trkpt>
      <trkpt lat="44.37175" lon="3.53955">
        <ele>514.784</ele>
        <time>2019-10-27T13:34:34.001Z</time>
      </trkpt>
      <trkpt lat="44.37101" lon="3.53912">
        <ele>518.724</ele>
        <time>2019-10-27T13:35:04.001Z</time>
      </trkpt>
      <trkpt lat="44.37062" lon="3.53819">
        <ele>529.11</ele>
        <time>2019-10-27T13:35:34.001Z</time>
      </trkpt>
      <trkpt lat="44.37057" lon="3.53619">
        <ele>532.514</ele>
        <time>2019-10-27T13:36:04.001Z</time>
      </trkpt>
      <trkpt lat="44.37131" lon="3.53428">
        <ele>533.927</ele>
        <time>2019-10-27T13:36:34.001Z</time>
      </trkpt>
      <trkpt lat="44.37242" lon="3.53238">
        <ele>527.883</ele>
        <time>2019-10-27T13:37:04.001Z</time>
      </trkpt>
      <trkpt lat="44.37401" lon="3.53092">
        <ele>514.635</ele>
        <time>2019-10-27T13:37:34.001Z</time>
      </trkpt>
      <trkpt lat="44.37528" lon="3.52978">
        <ele>510.439</ele>
        <time>2019-10-27T13:38:04.001Z</time>
      </trkpt>
      <trkpt lat="44.37558" lon="3.52815">
        <ele>512.229</ele>
        <time>2019-10-27T13:38:34.001Z</time>
      </trkpt>
      <trkpt lat="44.37608" lon="3.52613">
        <ele>514.045</ele>
        <time>2019-10-27T13:39:04.001Z</time>
      </trkpt>
      <trkpt lat="44.37675" lon="3.52421">
        <ele>515.598</ele>
        <time>2019-10-27T13:39:34.001Z</time>
      </trkpt>
      <trkpt lat="44.37687" lon="3.52207">
        <ele>514.148</ele>
        <time>2019-10-27T13:40:04.001Z</time>
      </trkpt>
      <trkpt lat="44.37708" lon="3.52194">
        <ele>513.599</ele>
        <time>2019-10-27T13:46:40.001Z</time>
      </trkpt>
      <trkpt lat="44.37694" lon="3.52217">
        <ele>536.592</ele>
        <time>2019-10-27T13:48:45.001Z</time>
      </trkpt>
      <trkpt lat="44.37692" lon="3.52198">
        <ele>510.97</ele>
        <time>2019-10-27T13:49:57.001Z</time>
      </trkpt>
      <trkpt lat="44.37692" lon="3.52223">
        <ele>512.289</ele>
        <time>2019-10-27T13:50:51.001Z</time>
      </trkpt>
      <trkpt lat="44.37694" lon="3.52306">
        <ele>519.223</ele>
        <time>2019-10-27T13:51:51.001Z</time>
      </trkpt>
      <trkpt lat="44.37696" lon="3.52313">
        <ele>517.086</ele>
        <time>2019-10-27T14:00:36.001Z</time>
      </trkpt>
      <trkpt lat="44.37696" lon="3.52309">
        <ele>517.011</ele>
        <time>2019-10-27T14:03:00.001Z</time>
      </trkpt>
      <trkpt lat="44.37696" lon="3.52309">
        <ele>517.011</ele>
        <time>2019-10-27T14:06:15.001Z</time>
      </trkpt>
      <trkpt lat="44.37696" lon="3.52309">
        <ele>517.011</ele>
        <time>2019-10-27T14:07:03.001Z</time>
      </trkpt>
    </trkseg>
  </trk>
</gpx>